sensor_id;sensor_type;location;lat;lon;timestamp;P1;durP1;ratioP1;P2;durP2;ratioP2
15841;SDS011;8021;48.022;11.812;2022-07-10T00:02:13;0.20;;;0.20;;
15841;SDS011;8021;48.022;11.812;2022-07-10T00:04:41;0.20;;;0.20;;
15841;SDS011;8021;48.022;11.812;2022-07-10T00:07:10;0.20;;;0.20;;
15841;SDS011;8021;48.022;11.812;2022-07-10T00:09:38;0.20;;;0.20;;
15841;SDS011;8021;48.022;11.812;2022-07-10T00:12:06;0.20;;;0.10;;
15841;SDS011;8021;48.022;11.812;2022-07-10T00:14:33;0.20;;;0.20;;
15841;SDS011;8021;48.022;11.812;2022-07-10T00:17:01;0.20;;;0.10;;
15841;SDS011;8021;48.022;11.812;2022-07-10T00:19:28;0.20;;;0.20;;
15841;SDS011;8021;48.022;11.812;2022-07-10T00:21:56;0.30;;;0.20;;
15841;SDS011;8021;48.022;11.812;2022-07-10T00:24:27;0.20;;;0.20;;
15841;SDS011;8021;48.022;11.812;2022-07-10T00:26:55;0.17;;;0.10;;
15841;SDS011;8021;48.022;11.812;2022-07-10T00:29:22;0.22;;;0.22;;
15841;SDS011;8021;48.022;11.812;2022-07-10T00:31:50;0.20;;;0.20;;
15841;SDS011;8021;48.022;11.812;2022-07-10T00:34:18;0.20;;;0.20;;
15841;SDS011;8021;48.022;11.812;2022-07-10T00:36:45;0.20;;;0.10;;
15841;SDS011;8021;48.022;11.812;2022-07-10T00:39:13;0.20;;;0.20;;
15841;SDS011;8021;48.022;11.812;2022-07-10T00:41:42;0.25;;;0.25;;
15841;SDS011;8021;48.022;11.812;2022-07-10T00:44:09;0.20;;;0.20;;
15841;SDS011;8021;48.022;11.812;2022-07-10T00:46:37;0.20;;;0.20;;
15841;SDS011;8021;48.022;11.812;2022-07-10T00:49:06;0.20;;;0.20;;
15841;SDS011;8021;48.022;11.812;2022-07-10T00:51:34;0.20;;;0.10;;
15841;SDS011;8021;48.022;11.812;2022-07-10T00:54:02;0.20;;;0.20;;
15841;SDS011;8021;48.022;11.812;2022-07-10T00:56:31;0.20;;;0.20;;
15841;SDS011;8021;48.022;11.812;2022-07-10T00:59:00;0.20;;;0.20;;
15841;SDS011;8021;48.022;11.812;2022-07-10T01:01:28;0.20;;;0.20;;
15841;SDS011;8021;48.022;11.812;2022-07-10T01:03:56;0.20;;;0.15;;
15841;SDS011;8021;48.022;11.812;2022-07-10T01:06:24;0.20;;;0.20;;
15841;SDS011;8021;48.022;11.812;2022-07-10T01:08:51;0.20;;;0.10;;
15841;SDS011;8021;48.022;11.812;2022-07-10T01:11:19;0.20;;;0.20;;
15841;SDS011;8021;48.022;11.812;2022-07-10T01:13:47;0.20;;;0.20;;
15841;SDS011;8021;48.022;11.812;2022-07-10T01:16:16;0.20;;;0.20;;
15841;SDS011;8021;48.022;11.812;2022-07-10T01:18:44;0.20;;;0.20;;
15841;SDS011;8021;48.022;11.812;2022-07-10T01:21:26;0.28;;;0.25;;
15841;SDS011;8021;48.022;11.812;2022-07-10T01:23:55;0.20;;;0.20;;
15841;SDS011;8021;48.022;11.812;2022-07-10T01:26:22;0.20;;;0.20;;
15841;SDS011;8021;48.022;11.812;2022-07-10T01:28:50;0.20;;;0.20;;
15841;SDS011;8021;48.022;11.812;2022-07-10T01:31:18;0.30;;;0.20;;
15841;SDS011;8021;48.022;11.812;2022-07-10T01:33:46;0.20;;;0.10;;
15841;SDS011;8021;48.022;11.812;2022-07-10T01:36:14;0.20;;;0.20;;
15841;SDS011;8021;48.022;11.812;2022-07-10T01:38:43;0.20;;;0.15;;
15841;SDS011;8021;48.022;11.812;2022-07-10T01:41:11;0.20;;;0.20;;
15841;SDS011;8021;48.022;11.812;2022-07-10T01:43:38;0.20;;;0.20;;
15841;SDS011;8021;48.022;11.812;2022-07-10T01:46:08;0.20;;;0.20;;
15841;SDS011;8021;48.022;11.812;2022-07-10T01:48:37;0.20;;;0.20;;
15841;SDS011;8021;48.022;11.812;2022-07-10T01:51:06;0.20;;;0.20;;
15841;SDS011;8021;48.022;11.812;2022-07-10T01:53:34;0.20;;;0.20;;
15841;SDS011;8021;48.022;11.812;2022-07-10T01:56:04;0.20;;;0.20;;
15841;SDS011;8021;48.022;11.812;2022-07-10T01:58:32;0.20;;;0.20;;
15841;SDS011;8021;48.022;11.812;2022-07-10T02:01:00;0.20;;;0.20;;
15841;SDS011;8021;48.022;11.812;2022-07-10T02:03:28;0.20;;;0.20;;
15841;SDS011;8021;48.022;11.812;2022-07-10T02:06:13;0.20;;;0.17;;
15841;SDS011;8021;48.022;11.812;2022-07-10T02:08:41;0.30;;;0.20;;
15841;SDS011;8021;48.022;11.812;2022-07-10T02:11:10;0.20;;;0.10;;
15841;SDS011;8021;48.022;11.812;2022-07-10T02:13:38;0.20;;;0.20;;
15841;SDS011;8021;48.022;11.812;2022-07-10T02:16:06;0.25;;;0.20;;
15841;SDS011;8021;48.022;11.812;2022-07-10T02:18:34;0.30;;;0.20;;
15841;SDS011;8021;48.022;11.812;2022-07-10T02:21:02;0.20;;;0.20;;
15841;SDS011;8021;48.022;11.812;2022-07-10T02:23:29;0.25;;;0.20;;
15841;SDS011;8021;48.022;11.812;2022-07-10T02:25:57;0.30;;;0.22;;
15841;SDS011;8021;48.022;11.812;2022-07-10T02:28:26;0.30;;;0.20;;
15841;SDS011;8021;48.022;11.812;2022-07-10T02:30:53;0.30;;;0.20;;
15841;SDS011;8021;48.022;11.812;2022-07-10T02:33:21;0.30;;;0.20;;
15841;SDS011;8021;48.022;11.812;2022-07-10T02:35:49;0.20;;;0.20;;
15841;SDS011;8021;48.022;11.812;2022-07-10T02:38:16;0.20;;;0.20;;
15841;SDS011;8021;48.022;11.812;2022-07-10T02:40:44;0.20;;;0.10;;
15841;SDS011;8021;48.022;11.812;2022-07-10T02:43:14;0.20;;;0.20;;
15841;SDS011;8021;48.022;11.812;2022-07-10T02:45:43;0.20;;;0.20;;
15841;SDS011;8021;48.022;11.812;2022-07-10T02:48:13;0.25;;;0.20;;
15841;SDS011;8021;48.022;11.812;2022-07-10T02:50:42;0.20;;;0.20;;
15841;SDS011;8021;48.022;11.812;2022-07-10T02:53:10;0.30;;;0.20;;
15841;SDS011;8021;48.022;11.812;2022-07-10T02:55:38;0.30;;;0.20;;
15841;SDS011;8021;48.022;11.812;2022-07-10T02:58:05;0.20;;;0.20;;
15841;SDS011;8021;48.022;11.812;2022-07-10T03:00:33;0.20;;;0.10;;
15841;SDS011;8021;48.022;11.812;2022-07-10T03:03:02;0.22;;;0.20;;
15841;SDS011;8021;48.022;11.812;2022-07-10T03:05:29;0.20;;;0.20;;
15841;SDS011;8021;48.022;11.812;2022-07-10T03:07:57;0.20;;;0.20;;
15841;SDS011;8021;48.022;11.812;2022-07-10T03:10:25;0.25;;;0.15;;
15841;SDS011;8021;48.022;11.812;2022-07-10T03:12:52;0.20;;;0.20;;
15841;SDS011;8021;48.022;11.812;2022-07-10T03:15:20;0.30;;;0.20;;
15841;SDS011;8021;48.022;11.812;2022-07-10T03:17:48;0.30;;;0.20;;
15841;SDS011;8021;48.022;11.812;2022-07-10T03:20:17;0.20;;;0.20;;
15841;SDS011;8021;48.022;11.812;2022-07-10T03:22:44;0.30;;;0.20;;
15841;SDS011;8021;48.022;11.812;2022-07-10T03:25:12;0.30;;;0.20;;
15841;SDS011;8021;48.022;11.812;2022-07-10T03:27:40;0.20;;;0.20;;
15841;SDS011;8021;48.022;11.812;2022-07-10T03:30:08;0.20;;;0.10;;
15841;SDS011;8021;48.022;11.812;2022-07-10T03:32:37;0.20;;;0.20;;
15841;SDS011;8021;48.022;11.812;2022-07-10T03:35:04;0.28;;;0.20;;
15841;SDS011;8021;48.022;11.812;2022-07-10T03:37:33;0.28;;;0.20;;
15841;SDS011;8021;48.022;11.812;2022-07-10T03:40:01;0.25;;;0.20;;
15841;SDS011;8021;48.022;11.812;2022-07-10T03:42:29;0.30;;;0.30;;
15841;SDS011;8021;48.022;11.812;2022-07-10T03:44:56;0.20;;;0.20;;
15841;SDS011;8021;48.022;11.812;2022-07-10T03:47:24;0.30;;;0.20;;
15841;SDS011;8021;48.022;11.812;2022-07-10T03:49:51;0.22;;;0.20;;
15841;SDS011;8021;48.022;11.812;2022-07-10T03:52:19;0.20;;;0.20;;
15841;SDS011;8021;48.022;11.812;2022-07-10T03:54:48;0.20;;;0.20;;
15841;SDS011;8021;48.022;11.812;2022-07-10T03:57:15;0.20;;;0.20;;
15841;SDS011;8021;48.022;11.812;2022-07-10T04:00:00;0.20;;;0.20;;
15841;SDS011;8021;48.022;11.812;2022-07-10T04:02:37;0.20;;;0.20;;
15841;SDS011;8021;48.022;11.812;2022-07-10T04:05:06;0.20;;;0.20;;
15841;SDS011;8021;48.022;11.812;2022-07-10T04:07:34;0.30;;;0.20;;
15841;SDS011;8021;48.022;11.812;2022-07-10T04:10:03;0.20;;;0.20;;
15841;SDS011;8021;48.022;11.812;2022-07-10T04:12:31;0.20;;;0.20;;
15841;SDS011;8021;48.022;11.812;2022-07-10T04:14:59;0.30;;;0.22;;
15841;SDS011;8021;48.022;11.812;2022-07-10T04:17:26;0.20;;;0.20;;
15841;SDS011;8021;48.022;11.812;2022-07-10T04:19:54;0.28;;;0.20;;
15841;SDS011;8021;48.022;11.812;2022-07-10T04:22:22;0.20;;;0.20;;
15841;SDS011;8021;48.022;11.812;2022-07-10T04:24:49;0.20;;;0.20;;
15841;SDS011;8021;48.022;11.812;2022-07-10T04:27:18;0.20;;;0.17;;
15841;SDS011;8021;48.022;11.812;2022-07-10T04:29:46;0.22;;;0.22;;
15841;SDS011;8021;48.022;11.812;2022-07-10T04:32:14;0.20;;;0.20;;
15841;SDS011;8021;48.022;11.812;2022-07-10T04:34:42;0.20;;;0.20;;
15841;SDS011;8021;48.022;11.812;2022-07-10T04:37:09;0.30;;;0.20;;
15841;SDS011;8021;48.022;11.812;2022-07-10T04:39:37;0.20;;;0.20;;
15841;SDS011;8021;48.022;11.812;2022-07-10T04:42:05;0.20;;;0.20;;
15841;SDS011;8021;48.022;11.812;2022-07-10T04:44:34;0.20;;;0.20;;
15841;SDS011;8021;48.022;11.812;2022-07-10T04:47:02;0.20;;;0.20;;
15841;SDS011;8021;48.022;11.812;2022-07-10T04:49:30;0.20;;;0.20;;
15841;SDS011;8021;48.022;11.812;2022-07-10T04:51:58;0.20;;;0.20;;
15841;SDS011;8021;48.022;11.812;2022-07-10T04:54:27;0.20;;;0.20;;
15841;SDS011;8021;48.022;11.812;2022-07-10T04:56:55;0.30;;;0.20;;
15841;SDS011;8021;48.022;11.812;2022-07-10T04:59:23;0.20;;;0.20;;
15841;SDS011;8021;48.022;11.812;2022-07-10T05:01:51;0.20;;;0.20;;
15841;SDS011;8021;48.022;11.812;2022-07-10T05:04:19;0.20;;;0.20;;
15841;SDS011;8021;48.022;11.812;2022-07-10T05:06:47;0.20;;;0.10;;
15841;SDS011;8021;48.022;11.812;2022-07-10T05:09:14;0.20;;;0.20;;
15841;SDS011;8021;48.022;11.812;2022-07-10T05:11:42;0.20;;;0.20;;
15841;SDS011;8021;48.022;11.812;2022-07-10T05:14:09;0.20;;;0.20;;
15841;SDS011;8021;48.022;11.812;2022-07-10T05:16:37;0.20;;;0.20;;
15841;SDS011;8021;48.022;11.812;2022-07-10T05:19:06;0.20;;;0.20;;
15841;SDS011;8021;48.022;11.812;2022-07-10T05:21:33;0.20;;;0.20;;
15841;SDS011;8021;48.022;11.812;2022-07-10T05:24:01;0.20;;;0.20;;
15841;SDS011;8021;48.022;11.812;2022-07-10T05:26:29;0.20;;;0.20;;
15841;SDS011;8021;48.022;11.812;2022-07-10T05:28:56;0.20;;;0.20;;
15841;SDS011;8021;48.022;11.812;2022-07-10T05:31:24;0.20;;;0.20;;
15841;SDS011;8021;48.022;11.812;2022-07-10T05:33:51;0.20;;;0.17;;
15841;SDS011;8021;48.022;11.812;2022-07-10T05:36:20;0.20;;;0.20;;
15841;SDS011;8021;48.022;11.812;2022-07-10T05:38:51;0.20;;;0.15;;
15841;SDS011;8021;48.022;11.812;2022-07-10T05:41:18;0.20;;;0.20;;
15841;SDS011;8021;48.022;11.812;2022-07-10T05:43:46;0.22;;;0.22;;
15841;SDS011;8021;48.022;11.812;2022-07-10T05:46:13;0.20;;;0.20;;
15841;SDS011;8021;48.022;11.812;2022-07-10T05:48:41;0.20;;;0.10;;
15841;SDS011;8021;48.022;11.812;2022-07-10T05:51:09;0.20;;;0.20;;
15841;SDS011;8021;48.022;11.812;2022-07-10T05:53:58;0.20;;;0.20;;
15841;SDS011;8021;48.022;11.812;2022-07-10T05:56:25;0.20;;;0.20;;
15841;SDS011;8021;48.022;11.812;2022-07-10T05:58:53;0.20;;;0.20;;
15841;SDS011;8021;48.022;11.812;2022-07-10T06:01:22;0.10;;;0.10;;
15841;SDS011;8021;48.022;11.812;2022-07-10T06:03:49;0.20;;;0.20;;
15841;SDS011;8021;48.022;11.812;2022-07-10T06:06:17;0.20;;;0.20;;
15841;SDS011;8021;48.022;11.812;2022-07-10T06:08:45;0.20;;;0.10;;
15841;SDS011;8021;48.022;11.812;2022-07-10T06:11:14;0.30;;;0.30;;
15841;SDS011;8021;48.022;11.812;2022-07-10T06:13:42;0.20;;;0.10;;
15841;SDS011;8021;48.022;11.812;2022-07-10T06:16:10;0.20;;;0.20;;
15841;SDS011;8021;48.022;11.812;2022-07-10T06:18:37;0.20;;;0.10;;
15841;SDS011;8021;48.022;11.812;2022-07-10T06:21:06;0.20;;;0.20;;
15841;SDS011;8021;48.022;11.812;2022-07-10T06:23:34;0.20;;;0.20;;
15841;SDS011;8021;48.022;11.812;2022-07-10T06:26:01;0.20;;;0.10;;
15841;SDS011;8021;48.022;11.812;2022-07-10T06:28:30;0.30;;;0.20;;
15841;SDS011;8021;48.022;11.812;2022-07-10T06:31:04;0.20;;;0.20;;
15841;SDS011;8021;48.022;11.812;2022-07-10T06:33:32;0.20;;;0.20;;
15841;SDS011;8021;48.022;11.812;2022-07-10T06:36:01;0.20;;;0.20;;
15841;SDS011;8021;48.022;11.812;2022-07-10T06:38:29;0.20;;;0.10;;
15841;SDS011;8021;48.022;11.812;2022-07-10T06:40:56;0.20;;;0.20;;
15841;SDS011;8021;48.022;11.812;2022-07-10T06:43:24;0.20;;;0.13;;
15841;SDS011;8021;48.022;11.812;2022-07-10T06:45:53;0.10;;;0.10;;
15841;SDS011;8021;48.022;11.812;2022-07-10T06:48:21;0.17;;;0.17;;
15841;SDS011;8021;48.022;11.812;2022-07-10T06:50:48;0.10;;;0.10;;
15841;SDS011;8021;48.022;11.812;2022-07-10T06:53:16;0.20;;;0.20;;
15841;SDS011;8021;48.022;11.812;2022-07-10T06:55:44;0.10;;;0.10;;
15841;SDS011;8021;48.022;11.812;2022-07-10T06:58:11;0.20;;;0.20;;
15841;SDS011;8021;48.022;11.812;2022-07-10T07:00:39;0.10;;;0.10;;
15841;SDS011;8021;48.022;11.812;2022-07-10T07:03:08;0.10;;;0.10;;
15841;SDS011;8021;48.022;11.812;2022-07-10T07:05:35;0.10;;;0.10;;
15841;SDS011;8021;48.022;11.812;2022-07-10T07:08:04;0.10;;;0.10;;
15841;SDS011;8021;48.022;11.812;2022-07-10T07:10:32;0.00;;;0.00;;
15841;SDS011;8021;48.022;11.812;2022-07-10T07:12:59;0.00;;;0.00;;
15841;SDS011;8021;48.022;11.812;2022-07-10T07:15:29;0.00;;;0.00;;
15841;SDS011;8021;48.022;11.812;2022-07-10T07:17:57;0.00;;;0.00;;
15841;SDS011;8021;48.022;11.812;2022-07-10T07:20:35;0.00;;;0.00;;
15841;SDS011;8021;48.022;11.812;2022-07-10T07:23:21;0.00;;;0.00;;
15841;SDS011;8021;48.022;11.812;2022-07-10T07:25:49;0.00;;;0.00;;
15841;SDS011;8021;48.022;11.812;2022-07-10T07:28:17;0.03;;;0.00;;
15841;SDS011;8021;48.022;11.812;2022-07-10T07:30:46;0.00;;;0.00;;
15841;SDS011;8021;48.022;11.812;2022-07-10T07:33:14;0.10;;;0.10;;
15841;SDS011;8021;48.022;11.812;2022-07-10T07:35:43;0.10;;;0.10;;
15841;SDS011;8021;48.022;11.812;2022-07-10T07:38:10;0.10;;;0.10;;
15841;SDS011;8021;48.022;11.812;2022-07-10T07:40:38;0.10;;;0.10;;
15841;SDS011;8021;48.022;11.812;2022-07-10T07:43:06;0.10;;;0.10;;
15841;SDS011;8021;48.022;11.812;2022-07-10T07:45:33;0.10;;;0.10;;
15841;SDS011;8021;48.022;11.812;2022-07-10T07:48:01;0.10;;;0.10;;
15841;SDS011;8021;48.022;11.812;2022-07-10T07:50:30;0.20;;;0.20;;
15841;SDS011;8021;48.022;11.812;2022-07-10T07:53:00;0.10;;;0.10;;
15841;SDS011;8021;48.022;11.812;2022-07-10T07:55:28;0.10;;;0.10;;
15841;SDS011;8021;48.022;11.812;2022-07-10T07:57:56;0.10;;;0.10;;
15841;SDS011;8021;48.022;11.812;2022-07-10T08:00:25;0.10;;;0.10;;
15841;SDS011;8021;48.022;11.812;2022-07-10T08:02:53;0.10;;;0.10;;
15841;SDS011;8021;48.022;11.812;2022-07-10T08:05:21;0.10;;;0.10;;
15841;SDS011;8021;48.022;11.812;2022-07-10T08:07:50;0.10;;;0.10;;
15841;SDS011;8021;48.022;11.812;2022-07-10T08:10:20;0.10;;;0.10;;
15841;SDS011;8021;48.022;11.812;2022-07-10T08:12:48;0.10;;;0.10;;
15841;SDS011;8021;48.022;11.812;2022-07-10T08:15:17;0.10;;;0.10;;
15841;SDS011;8021;48.022;11.812;2022-07-10T08:17:47;0.10;;;0.10;;
15841;SDS011;8021;48.022;11.812;2022-07-10T08:23:07;0.10;;;0.10;;
15841;SDS011;8021;48.022;11.812;2022-07-10T08:25:36;0.10;;;0.10;;
15841;SDS011;8021;48.022;11.812;2022-07-10T08:28:03;0.10;;;0.08;;
15841;SDS011;8021;48.022;11.812;2022-07-10T08:30:32;0.08;;;0.08;;
15841;SDS011;8021;48.022;11.812;2022-07-10T08:33:00;0.00;;;0.00;;
15841;SDS011;8021;48.022;11.812;2022-07-10T08:35:27;0.00;;;0.00;;
15841;SDS011;8021;48.022;11.812;2022-07-10T08:37:55;0.00;;;0.00;;
15841;SDS011;8021;48.022;11.812;2022-07-10T08:40:22;0.00;;;0.00;;
15841;SDS011;8021;48.022;11.812;2022-07-10T08:42:52;0.00;;;0.00;;
15841;SDS011;8021;48.022;11.812;2022-07-10T08:45:20;0.00;;;0.00;;
15841;SDS011;8021;48.022;11.812;2022-07-10T08:47:48;0.00;;;0.00;;
15841;SDS011;8021;48.022;11.812;2022-07-10T08:50:17;0.00;;;0.00;;
15841;SDS011;8021;48.022;11.812;2022-07-10T08:52:48;0.03;;;0.00;;
15841;SDS011;8021;48.022;11.812;2022-07-10T08:55:23;0.00;;;0.00;;
15841;SDS011;8021;48.022;11.812;2022-07-10T08:57:52;0.00;;;0.00;;
15841;SDS011;8021;48.022;11.812;2022-07-10T09:00:21;0.00;;;0.00;;
15841;SDS011;8021;48.022;11.812;2022-07-10T09:02:49;0.00;;;0.00;;
15841;SDS011;8021;48.022;11.812;2022-07-10T09:05:16;0.00;;;0.00;;
15841;SDS011;8021;48.022;11.812;2022-07-10T09:07:45;0.00;;;0.00;;
15841;SDS011;8021;48.022;11.812;2022-07-10T09:10:13;0.00;;;0.00;;
15841;SDS011;8021;48.022;11.812;2022-07-10T09:12:51;0.00;;;0.00;;
15841;SDS011;8021;48.022;11.812;2022-07-10T09:15:20;0.00;;;0.00;;
15841;SDS011;8021;48.022;11.812;2022-07-10T09:17:50;0.00;;;0.00;;
15841;SDS011;8021;48.022;11.812;2022-07-10T09:20:24;0.00;;;0.00;;
15841;SDS011;8021;48.022;11.812;2022-07-10T09:22:51;0.00;;;0.00;;
15841;SDS011;8021;48.022;11.812;2022-07-10T09:25:19;0.00;;;0.00;;
15841;SDS011;8021;48.022;11.812;2022-07-10T09:27:50;0.00;;;0.00;;
15841;SDS011;8021;48.022;11.812;2022-07-10T09:30:26;0.00;;;0.00;;
15841;SDS011;8021;48.022;11.812;2022-07-10T09:35:53;0.10;;;0.10;;
15841;SDS011;8021;48.022;11.812;2022-07-10T09:38:49;0.10;;;0.10;;
15841;SDS011;8021;48.022;11.812;2022-07-10T09:41:18;0.05;;;0.05;;
15841;SDS011;8021;48.022;11.812;2022-07-10T09:43:46;0.00;;;0.00;;
15841;SDS011;8021;48.022;11.812;2022-07-10T09:46:16;0.10;;;0.10;;
15841;SDS011;8021;48.022;11.812;2022-07-10T09:48:44;0.10;;;0.10;;
15841;SDS011;8021;48.022;11.812;2022-07-10T09:51:12;0.10;;;0.10;;
15841;SDS011;8021;48.022;11.812;2022-07-10T09:53:40;0.10;;;0.10;;
15841;SDS011;8021;48.022;11.812;2022-07-10T09:56:09;0.10;;;0.10;;
15841;SDS011;8021;48.022;11.812;2022-07-10T09:58:38;0.10;;;0.10;;
15841;SDS011;8021;48.022;11.812;2022-07-10T10:01:08;0.10;;;0.10;;
15841;SDS011;8021;48.022;11.812;2022-07-10T10:03:37;0.10;;;0.10;;
15841;SDS011;8021;48.022;11.812;2022-07-10T10:06:09;0.10;;;0.10;;
15841;SDS011;8021;48.022;11.812;2022-07-10T10:08:43;0.10;;;0.10;;
15841;SDS011;8021;48.022;11.812;2022-07-10T10:11:13;0.10;;;0.10;;
15841;SDS011;8021;48.022;11.812;2022-07-10T10:13:41;0.10;;;0.10;;
15841;SDS011;8021;48.022;11.812;2022-07-10T10:16:09;0.10;;;0.10;;
15841;SDS011;8021;48.022;11.812;2022-07-10T10:18:38;0.10;;;0.10;;
15841;SDS011;8021;48.022;11.812;2022-07-10T10:21:27;0.10;;;0.10;;
15841;SDS011;8021;48.022;11.812;2022-07-10T10:23:54;0.17;;;0.17;;
15841;SDS011;8021;48.022;11.812;2022-07-10T10:26:23;0.10;;;0.10;;
15841;SDS011;8021;48.022;11.812;2022-07-10T10:28:51;0.10;;;0.10;;
15841;SDS011;8021;48.022;11.812;2022-07-10T10:31:19;0.10;;;0.10;;
15841;SDS011;8021;48.022;11.812;2022-07-10T10:33:48;0.10;;;0.10;;
15841;SDS011;8021;48.022;11.812;2022-07-10T10:39:09;0.13;;;0.13;;
15841;SDS011;8021;48.022;11.812;2022-07-10T10:41:39;0.13;;;0.13;;
15841;SDS011;8021;48.022;11.812;2022-07-10T10:46:53;0.20;;;0.20;;
15841;SDS011;8021;48.022;11.812;2022-07-10T10:49:24;0.10;;;0.10;;
15841;SDS011;8021;48.022;11.812;2022-07-10T10:51:58;0.10;;;0.10;;
15841;SDS011;8021;48.022;11.812;2022-07-10T10:54:26;0.10;;;0.10;;
15841;SDS011;8021;48.022;11.812;2022-07-10T10:57:13;0.10;;;0.10;;
15841;SDS011;8021;48.022;11.812;2022-07-10T10:59:44;0.10;;;0.10;;
15841;SDS011;8021;48.022;11.812;2022-07-10T11:02:21;0.10;;;0.10;;
15841;SDS011;8021;48.022;11.812;2022-07-10T11:04:50;0.10;;;0.10;;
15841;SDS011;8021;48.022;11.812;2022-07-10T11:15:31;0.10;;;0.10;;
15841;SDS011;8021;48.022;11.812;2022-07-10T11:17:59;0.10;;;0.10;;
15841;SDS011;8021;48.022;11.812;2022-07-10T11:20:32;0.10;;;0.10;;
15841;SDS011;8021;48.022;11.812;2022-07-10T11:25:45;0.10;;;0.10;;
15841;SDS011;8021;48.022;11.812;2022-07-10T11:28:29;0.10;;;0.10;;
15841;SDS011;8021;48.022;11.812;2022-07-10T11:30:59;0.10;;;0.10;;
15841;SDS011;8021;48.022;11.812;2022-07-10T11:33:27;0.10;;;0.10;;
15841;SDS011;8021;48.022;11.812;2022-07-10T11:35:56;0.10;;;0.10;;
15841;SDS011;8021;48.022;11.812;2022-07-10T11:38:24;0.10;;;0.10;;
15841;SDS011;8021;48.022;11.812;2022-07-10T11:40:52;0.10;;;0.10;;
15841;SDS011;8021;48.022;11.812;2022-07-10T11:43:21;0.10;;;0.10;;
15841;SDS011;8021;48.022;11.812;2022-07-10T11:45:51;0.10;;;0.10;;
15841;SDS011;8021;48.022;11.812;2022-07-10T11:48:20;0.00;;;0.00;;
15841;SDS011;8021;48.022;11.812;2022-07-10T11:50:49;0.10;;;0.10;;
15841;SDS011;8021;48.022;11.812;2022-07-10T11:53:23;0.10;;;0.10;;
15841;SDS011;8021;48.022;11.812;2022-07-10T11:55:50;0.10;;;0.10;;
15841;SDS011;8021;48.022;11.812;2022-07-10T11:58:19;0.10;;;0.10;;
15841;SDS011;8021;48.022;11.812;2022-07-10T12:00:56;0.10;;;0.10;;
15841;SDS011;8021;48.022;11.812;2022-07-10T12:03:25;0.10;;;0.10;;
15841;SDS011;8021;48.022;11.812;2022-07-10T12:05:55;0.10;;;0.10;;
15841;SDS011;8021;48.022;11.812;2022-07-10T12:08:24;0.10;;;0.10;;
15841;SDS011;8021;48.022;11.812;2022-07-10T12:10:51;0.10;;;0.10;;
15841;SDS011;8021;48.022;11.812;2022-07-10T12:13:19;0.00;;;0.00;;
15841;SDS011;8021;48.022;11.812;2022-07-10T12:15:47;0.10;;;0.10;;
15841;SDS011;8021;48.022;11.812;2022-07-10T12:18:15;0.10;;;0.10;;
15841;SDS011;8021;48.022;11.812;2022-07-10T12:20:43;0.10;;;0.10;;
15841;SDS011;8021;48.022;11.812;2022-07-10T12:23:12;0.10;;;0.10;;
15841;SDS011;8021;48.022;11.812;2022-07-10T12:25:43;0.10;;;0.10;;
15841;SDS011;8021;48.022;11.812;2022-07-10T12:28:11;0.10;;;0.10;;
15841;SDS011;8021;48.022;11.812;2022-07-10T12:30:39;0.10;;;0.10;;
15841;SDS011;8021;48.022;11.812;2022-07-10T12:33:08;0.10;;;0.10;;
15841;SDS011;8021;48.022;11.812;2022-07-10T12:35:46;0.10;;;0.10;;
15841;SDS011;8021;48.022;11.812;2022-07-10T12:38:15;0.10;;;0.10;;
15841;SDS011;8021;48.022;11.812;2022-07-10T12:40:44;0.10;;;0.10;;
15841;SDS011;8021;48.022;11.812;2022-07-10T12:43:11;0.00;;;0.00;;
15841;SDS011;8021;48.022;11.812;2022-07-10T12:45:39;0.10;;;0.10;;
15841;SDS011;8021;48.022;11.812;2022-07-10T12:48:07;0.03;;;0.00;;
15841;SDS011;8021;48.022;11.812;2022-07-10T12:50:34;0.08;;;0.00;;
15841;SDS011;8021;48.022;11.812;2022-07-10T12:53:09;0.10;;;0.10;;
15841;SDS011;8021;48.022;11.812;2022-07-10T12:55:38;0.10;;;0.10;;
15841;SDS011;8021;48.022;11.812;2022-07-10T12:58:09;0.10;;;0.10;;
15841;SDS011;8021;48.022;11.812;2022-07-10T13:00:43;0.00;;;0.00;;
15841;SDS011;8021;48.022;11.812;2022-07-10T13:03:11;0.00;;;0.00;;
15841;SDS011;8021;48.022;11.812;2022-07-10T13:05:41;0.10;;;0.10;;
15841;SDS011;8021;48.022;11.812;2022-07-10T13:08:10;0.10;;;0.10;;
15841;SDS011;8021;48.022;11.812;2022-07-10T13:10:39;0.10;;;0.10;;
15841;SDS011;8021;48.022;11.812;2022-07-10T13:13:08;0.10;;;0.10;;
15841;SDS011;8021;48.022;11.812;2022-07-10T13:15:36;0.10;;;0.10;;
15841;SDS011;8021;48.022;11.812;2022-07-10T13:18:07;0.10;;;0.10;;
15841;SDS011;8021;48.022;11.812;2022-07-10T13:20:36;0.10;;;0.10;;
15841;SDS011;8021;48.022;11.812;2022-07-10T13:23:04;0.10;;;0.10;;
15841;SDS011;8021;48.022;11.812;2022-07-10T13:25:31;0.10;;;0.10;;
15841;SDS011;8021;48.022;11.812;2022-07-10T13:28:00;0.05;;;0.05;;
15841;SDS011;8021;48.022;11.812;2022-07-10T13:30:29;0.10;;;0.10;;
15841;SDS011;8021;48.022;11.812;2022-07-10T13:32:57;0.00;;;0.00;;
15841;SDS011;8021;48.022;11.812;2022-07-10T13:35:26;0.10;;;0.10;;
15841;SDS011;8021;48.022;11.812;2022-07-10T13:37:54;0.10;;;0.10;;
15841;SDS011;8021;48.022;11.812;2022-07-10T13:40:22;0.10;;;0.10;;
15841;SDS011;8021;48.022;11.812;2022-07-10T13:42:49;0.10;;;0.10;;
15841;SDS011;8021;48.022;11.812;2022-07-10T13:45:17;0.10;;;0.10;;
15841;SDS011;8021;48.022;11.812;2022-07-10T13:47:46;0.10;;;0.10;;
15841;SDS011;8021;48.022;11.812;2022-07-10T13:50:13;0.10;;;0.10;;
15841;SDS011;8021;48.022;11.812;2022-07-10T13:52:41;0.10;;;0.10;;
15841;SDS011;8021;48.022;11.812;2022-07-10T13:55:10;0.10;;;0.10;;
15841;SDS011;8021;48.022;11.812;2022-07-10T13:57:38;0.10;;;0.10;;
15841;SDS011;8021;48.022;11.812;2022-07-10T14:00:06;0.10;;;0.10;;
15841;SDS011;8021;48.022;11.812;2022-07-10T14:02:40;0.15;;;0.15;;
15841;SDS011;8021;48.022;11.812;2022-07-10T14:05:09;0.10;;;0.10;;
15841;SDS011;8021;48.022;11.812;2022-07-10T14:07:36;0.10;;;0.10;;
15841;SDS011;8021;48.022;11.812;2022-07-10T14:10:04;0.10;;;0.10;;
15841;SDS011;8021;48.022;11.812;2022-07-10T14:12:32;0.10;;;0.10;;
15841;SDS011;8021;48.022;11.812;2022-07-10T14:14:59;0.10;;;0.10;;
15841;SDS011;8021;48.022;11.812;2022-07-10T14:17:27;0.10;;;0.10;;
15841;SDS011;8021;48.022;11.812;2022-07-10T14:19:56;0.20;;;0.20;;
15841;SDS011;8021;48.022;11.812;2022-07-10T14:22:25;0.10;;;0.10;;
15841;SDS011;8021;48.022;11.812;2022-07-10T14:24:52;0.20;;;0.20;;
15841;SDS011;8021;48.022;11.812;2022-07-10T14:27:20;0.10;;;0.10;;
15841;SDS011;8021;48.022;11.812;2022-07-10T14:29:49;0.10;;;0.10;;
15841;SDS011;8021;48.022;11.812;2022-07-10T14:32:17;0.10;;;0.10;;
15841;SDS011;8021;48.022;11.812;2022-07-10T14:34:44;0.20;;;0.20;;
15841;SDS011;8021;48.022;11.812;2022-07-10T14:37:12;0.20;;;0.20;;
15841;SDS011;8021;48.022;11.812;2022-07-10T14:39:41;0.10;;;0.10;;
15841;SDS011;8021;48.022;11.812;2022-07-10T14:42:08;0.10;;;0.10;;
15841;SDS011;8021;48.022;11.812;2022-07-10T14:44:36;0.10;;;0.10;;
15841;SDS011;8021;48.022;11.812;2022-07-10T14:47:04;0.10;;;0.10;;
15841;SDS011;8021;48.022;11.812;2022-07-10T14:49:32;0.10;;;0.10;;
15841;SDS011;8021;48.022;11.812;2022-07-10T14:51:59;0.10;;;0.10;;
15841;SDS011;8021;48.022;11.812;2022-07-10T14:54:27;0.10;;;0.10;;
15841;SDS011;8021;48.022;11.812;2022-07-10T14:56:56;0.10;;;0.10;;
15841;SDS011;8021;48.022;11.812;2022-07-10T14:59:29;0.00;;;0.00;;
15841;SDS011;8021;48.022;11.812;2022-07-10T15:01:58;0.10;;;0.10;;
15841;SDS011;8021;48.022;11.812;2022-07-10T15:04:26;0.10;;;0.10;;
15841;SDS011;8021;48.022;11.812;2022-07-10T15:06:53;0.10;;;0.10;;
15841;SDS011;8021;48.022;11.812;2022-07-10T15:09:21;0.15;;;0.15;;
15841;SDS011;8021;48.022;11.812;2022-07-10T15:11:48;0.10;;;0.10;;
15841;SDS011;8021;48.022;11.812;2022-07-10T15:14:19;0.17;;;0.17;;
15841;SDS011;8021;48.022;11.812;2022-07-10T15:16:47;0.10;;;0.10;;
15841;SDS011;8021;48.022;11.812;2022-07-10T15:19:15;0.10;;;0.10;;
15841;SDS011;8021;48.022;11.812;2022-07-10T15:21:43;0.10;;;0.10;;